Time;durP1;ratioP1;P1;durP2;ratioP2;P2;SDS_P1;SDS_P2;PMS_P1;PMS_P2;Temp;Humidity;BMP_temperature;BMP_pressure;BME280_temperature;BME280_humidity;BME280_pressure;Samples;Min_cycle;Max_cycle;Signal;HPM_P1;HPM_P2
2022/11/30 00:01:32;;;;;;;44.43;21.20;;;-1.90;99.90;;;;;;4163009;28;20805;-63
2022/11/30 00:03:33;;;;;;;44.33;22.50;;;-1.90;99.90;;;;;;4159522;28;20275;-64
2022/11/30 00:05:34;;;;;;;46.33;22.17;;;-1.90;99.90;;;;;;4163374;28;20259;-65
2022/11/30 00:07:35;;;;;;;47.37;23.40;;;-1.80;99.90;;;;;;4163470;28;20266;-63
2022/11/30 00:09:36;;;;;;;52.23;22.03;;;-1.80;99.90;;;;;;4160598;28;20325;-63
2022/11/30 00:11:37;;;;;;;47.00;22.27;;;-1.80;99.90;;;;;;4162813;28;20337;-63
2022/11/30 00:13:39;;;;;;;45.70;22.07;;;-1.90;99.90;;;;;;4162749;28;20255;-63
2022/11/30 00:15:40;;;;;;;54.93;23.90;;;-1.90;99.90;;;;;;4163539;28;20263;-63
2022/11/30 00:17:41;;;;;;;54.60;24.57;;;-1.90;99.90;;;;;;4162623;28;20251;-63
2022/11/30 00:19:43;;;;;;;53.10;24.67;;;-2.00;99.90;;;;;;4163705;28;20266;-63
2022/11/30 00:21:44;;;;;;;54.43;24.23;;;-2.00;99.90;;;;;;4162656;28;20686;-65
2022/11/30 00:23:46;;;;;;;56.37;25.03;;;-2.00;99.90;;;;;;4163711;28;20313;-62
2022/11/30 00:25:47;;;;;;;54.97;24.43;;;-2.10;99.90;;;;;;4162538;28;20251;-62
2022/11/30 00:27:48;;;;;;;54.33;24.00;;;-2.10;99.90;;;;;;4163591;28;20309;-62
2022/11/30 00:29:49;;;;;;;59.40;27.10;;;-2.10;99.90;;;;;;4161945;28;20399;-62
2022/11/30 00:31:50;;;;;;;62.23;28.13;;;-2.10;99.90;;;;;;4163167;28;20491;-62
2022/11/30 00:33:51;;;;;;;59.87;28.07;;;-2.10;99.90;;;;;;4162206;28;20332;-62
2022/11/30 00:35:57;;;;;;;57.10;27.13;;;-2.20;99.90;;;;;;4162740;28;20742;-63
2022/11/30 00:38:02;;;;;;;55.37;26.53;;;-2.20;99.90;;;;;;4162664;28;20317;-63
2022/11/30 00:40:04;;;;;;;57.17;27.87;;;-2.30;99.90;;;;;;4162341;28;20686;-63
2022/11/30 00:42:05;;;;;;;60.03;27.63;;;-2.30;99.90;;;;;;4162526;28;20662;-64
2022/11/30 00:44:06;;;;;;;53.70;26.43;;;-2.40;99.90;;;;;;4162190;28;20344;-64
2022/11/30 00:46:08;;;;;;;53.27;24.20;;;-2.40;99.90;;;;;;4162099;28;20299;-64
2022/11/30 00:48:09;;;;;;;60.83;27.50;;;-2.40;99.90;;;;;;4160881;28;20333;-64
2022/11/30 00:50:11;;;;;;;64.93;28.80;;;-2.40;99.90;;;;;;4162067;28;20753;-64
2022/11/30 00:52:12;;;;;;;62.90;27.50;;;-2.50;99.90;;;;;;4161327;28;20279;-64
2022/11/30 00:54:13;;;;;;;51.27;26.03;;;-2.40;99.90;;;;;;4162145;28;20274;-63
2022/11/30 00:56:14;;;;;;;51.60;25.60;;;-2.50;99.90;;;;;;4161213;28;21205;-64
2022/11/30 00:58:16;;;;;;;41.83;21.00;;;-2.40;99.90;;;;;;4162370;28;20263;-65
2022/11/30 01:00:17;;;;;;;49.37;22.83;;;-2.50;99.90;;;;;;4160268;28;20317;-63
2022/11/30 01:02:18;;;;;;;49.70;22.57;;;-2.40;99.90;;;;;;4162746;28;20266;-64
2022/11/30 01:04:20;;;;;;;48.80;22.83;;;-2.50;99.90;;;;;;4161149;28;20289;-65
2022/11/30 01:06:21;;;;;;;58.50;26.73;;;-2.40;99.90;;;;;;4161604;28;20313;-64
2022/11/30 01:08:24;;;;;;;55.80;26.97;;;-2.50;99.90;;;;;;4161233;28;20324;-62
2022/11/30 01:10:25;;;;;;;60.40;27.87;;;-2.50;99.90;;;;;;4161364;28;20333;-64
2022/11/30 01:12:26;;;;;;;56.70;26.83;;;-2.50;99.90;;;;;;4161275;28;20321;-63
2022/11/30 01:14:27;;;;;;;64.80;29.00;;;-2.60;99.90;;;;;;4160710;28;20271;-65
2022/11/30 01:16:31;;;;;;;56.47;25.43;;;-2.60;99.90;;;;;;4161791;28;20352;-63
2022/11/30 01:18:35;;;;;;;61.70;29.80;;;-2.60;99.90;;;;;;4160907;28;20267;-63
2022/11/30 01:20:42;;;;;;;54.27;27.17;;;-2.50;99.90;;;;;;4162062;28;20275;-62
2022/11/30 01:22:43;;;;;;;58.73;28.37;;;-2.50;99.90;;;;;;4159775;28;20275;-63
2022/11/30 01:24:44;;;;;;;71.07;29.43;;;-2.50;99.90;;;;;;4161286;28;20274;-63
2022/11/30 01:26:45;;;;;;;72.77;28.87;;;-2.50;99.90;;;;;;4160223;28;20666;-63
2022/11/30 01:28:53;;;;;;;59.97;28.10;;;-2.50;99.90;;;;;;4161944;28;20340;-63
2022/11/30 01:31:06;;;;;;;71.33;30.97;;;-2.50;99.90;;;;;;4160809;28;20888;-62
2022/11/30 01:33:07;;;;;;;70.07;32.00;;;-2.50;99.90;;;;;;4161551;28;20255;-62
2022/11/30 01:35:08;;;;;;;59.53;30.17;;;-2.60;99.90;;;;;;4160119;28;20321;-62
2022/11/30 01:37:09;;;;;;;65.83;30.80;;;-2.60;99.90;;;;;;4161814;28;20258;-62
2022/11/30 01:39:10;;;;;;;60.37;28.33;;;-2.60;99.90;;;;;;4159901;28;20333;-62
2022/11/30 01:41:14;;;;;;;61.80;27.63;;;-2.60;99.90;;;;;;4161502;28;20275;-62
2022/11/30 01:43:17;;;;;;;67.13;28.70;;;-2.60;99.90;;;;;;4160526;28;20270;-62
2022/11/30 01:45:19;;;;;;;62.87;29.20;;;-2.70;99.90;;;;;;4161426;28;20267;-62
2022/11/30 01:47:25;;;;;;;66.87;32.57;;;-2.70;99.90;;;;;;4088409;28;2058413;-62
2022/11/30 01:49:32;;;;;;;65.40;29.83;;;-2.80;99.90;;;;;;4161494;28;20551;-62
2022/11/30 01:52:03;;;;;;;64.70;29.90;;;-2.80;99.90;;;;;;4161529;28;20865;-61
2022/11/30 01:54:09;;;;;;;67.43;29.00;;;-2.80;99.90;;;;;;4161842;28;20267;-61
2022/11/30 01:56:10;;;;;;;71.50;31.50;;;-2.90;99.90;;;;;;4160721;28;21471;-62
2022/11/30 01:58:17;;;;;;;74.57;32.90;;;-2.90;99.90;;;;;;4161398;28;20263;-62
2022/11/30 02:00:18;;;;;;;80.87;35.17;;;-2.90;99.90;;;;;;4160947;28;20325;-64
2022/11/30 02:02:31;;;;;;;78.50;32.70;;;-2.90;99.90;;;;;;4161707;28;20804;-64
2022/11/30 02:04:35;;;;;;;68.63;31.97;;;-2.90;99.90;;;;;;4161344;28;20510;-68
2022/11/30 02:06:36;;;;;;;62.47;29.80;;;-2.80;99.90;;;;;;4161609;28;20650;-68
2022/11/30 02:08:37;;;;;;;76.63;33.60;;;-2.80;99.90;;;;;;4161565;28;20278;-63
2022/11/30 02:10:41;;;;;;;79.83;34.80;;;-2.70;99.90;;;;;;4160832;28;20294;-63
2022/11/30 02:13:05;;;;;;;70.80;33.67;;;-2.70;99.90;;;;;;4161498;28;20275;-68
2022/11/30 02:15:12;;;;;;;74.83;35.40;;;-2.70;99.90;;;;;;4160611;28;20336;-64
2022/11/30 02:17:22;;;;;;;81.20;36.53;;;-2.60;99.90;;;;;;4161506;28;20329;-63
2022/11/30 02:19:53;;;;;;;76.60;35.92;;;-2.60;99.90;;;;;;4161160;28;20597;-63
2022/11/30 02:21:56;;;;;;;77.00;34.70;;;-2.60;99.90;;;;;;4161164;28;20021;-66
2022/11/30 02:24:31;;;;;;;75.63;34.90;;;-2.60;99.90;;;;;;4161430;28;20441;-63
2022/11/30 02:27:01;;;;;;;66.00;32.93;;;-2.60;99.90;;;;;;4160750;28;20326;-63
2022/11/30 02:29:32;;;;;;;78.17;35.27;;;-2.60;99.90;;;;;;4161947;28;20301;-63
2022/11/30 02:31:42;;;;;;;79.13;35.90;;;-2.60;99.90;;;;;;4160234;28;20382;-67
2022/11/30 02:33:45;;;;;;;90.30;35.85;;;-2.60;99.90;;;;;;4161940;28;20033;-64
2022/11/30 02:35:51;;;;;;;91.40;37.87;;;-2.60;99.90;;;;;;4159232;28;20037;-64
2022/11/30 02:37:53;;;;;;;72.80;30.73;;;-2.60;99.90;;;;;;4161806;28;20325;-62
2022/11/30 02:39:54;;;;;;;63.77;29.57;;;-2.60;99.90;;;;;;4160652;28;20809;-67
2022/11/30 02:41:56;;;;;;;58.97;29.20;;;-2.70;99.90;;;;;;4161739;28;20313;-62
2022/11/30 02:43:59;;;;;;;64.30;30.63;;;-2.70;99.90;;;;;;4160156;28;20263;-64
2022/11/30 02:46:40;;;;;;;57.70;27.60;;;-2.80;99.90;;;;;;4161379;28;20270;-62
2022/11/30 02:49:18;;;;;;;59.40;27.58;;;-2.90;99.90;;;;;;4159651;28;20356;-63
2022/11/30 02:51:24;;;;;;;56.43;25.90;;;-3.00;99.90;;;;;;4111331;28;20047;-64
2022/11/30 02:53:25;;;;;;;58.07;26.90;;;-3.10;99.90;;;;;;4160230;28;20768;-63
2022/11/30 02:55:28;;;;;;;60.73;25.87;;;-3.20;99.90;;;;;;4161718;28;20345;-64
2022/11/30 02:57:29;;;;;;;52.97;24.50;;;-3.30;99.90;;;;;;4160609;28;20268;-66
2022/11/30 02:59:31;;;;;;;58.77;25.60;;;-3.30;99.90;;;;;;4160800;28;20333;-64
2022/11/30 03:01:32;;;;;;;56.50;26.40;;;-3.30;99.90;;;;;;4160266;28;20812;-68
2022/11/30 03:03:33;;;;;;;57.17;25.70;;;-3.30;99.90;;;;;;4161217;28;20266;-64
2022/11/30 03:05:34;;;;;;;60.80;27.27;;;-3.30;99.90;;;;;;4160462;28;20734;-63
2022/11/30 03:07:36;;;;;;;56.40;25.23;;;-3.30;99.90;;;;;;4161025;28;20317;-63
2022/11/30 03:09:37;;;;;;;57.83;24.10;;;-3.40;99.90;;;;;;4160493;28;20329;-69
2022/11/30 03:11:38;;;;;;;49.73;25.03;;;-3.40;99.90;;;;;;4161069;28;20294;-63
2022/11/30 03:13:39;;;;;;;53.93;24.57;;;-3.40;99.90;;;;;;4160418;28;20270;-64
2022/11/30 03:15:40;;;;;;;52.70;24.70;;;-3.40;99.90;;;;;;4160122;28;20294;-64
2022/11/30 03:17:41;;;;;;;52.83;24.60;;;-3.40;99.90;;;;;;4160793;28;20739;-64
2022/11/30 03:19:42;;;;;;;57.90;24.43;;;-3.50;99.90;;;;;;4159910;28;20279;-64
2022/11/30 03:21:43;;;;;;;56.90;24.63;;;-3.50;99.90;;;;;;4160940;28;20329;-62
2022/11/30 03:23:44;;;;;;;60.77;26.33;;;-3.40;99.90;;;;;;4160267;28;20270;-63
2022/11/30 03:25:46;;;;;;;59.03;29.43;;;-3.40;99.90;;;;;;4161127;28;20259;-64
2022/11/30 03:27:47;;;;;;;66.07;29.27;;;-3.30;99.90;;;;;;4141847;28;20780;-62
2022/11/30 03:29:48;;;;;;;67.10;28.60;;;-3.30;99.90;;;;;;4161364;28;20275;-63
2022/11/30 03:31:49;;;;;;;68.50;28.73;;;-3.30;99.90;;;;;;4159933;28;20291;-62
2022/11/30 03:33:50;;;;;;;66.67;30.07;;;-3.30;99.90;;;;;;4161406;28;20271;-61
2022/11/30 03:36:00;;;;;;;84.07;29.73;;;-3.30;99.90;;;;;;4160121;28;20739;-62
2022/11/30 03:38:01;;;;;;;84.17;31.03;;;-3.40;99.90;;;;;;4161370;28;20286;-63
2022/11/30 03:40:03;;;;;;;80.03;31.47;;;-3.50;99.90;;;;;;4159548;28;20271;-63
2022/11/30 03:42:04;;;;;;;85.20;31.70;;;-3.50;99.90;;;;;;4161024;28;20321;-62
2022/11/30 03:44:05;;;;;;;84.23;31.77;;;-3.60;99.90;;;;;;4142511;28;20263;-62
2022/11/30 03:46:06;;;;;;;83.40;32.00;;;-3.60;99.90;;;;;;4160437;28;20336;-62
2022/11/30 03:48:07;;;;;;;74.63;29.53;;;-3.60;99.90;;;;;;4163586;28;20751;-62
2022/11/30 03:50:10;;;;;;;83.90;33.60;;;-3.60;99.90;;;;;;4162995;28;20401;-67
2022/11/30 03:52:11;;;;;;;99.67;37.20;;;-3.60;99.90;;;;;;4163861;28;20271;-64
2022/11/30 03:54:12;;;;;;;138.40;38.03;;;-3.70;99.90;;;;;;4162503;28;20279;-64
2022/11/30 03:56:14;;;;;;;145.37;39.30;;;-3.70;99.90;;;;;;4163914;28;20661;-63
2022/11/30 03:58:15;;;;;;;193.37;42.73;;;-3.70;99.90;;;;;;4162757;28;20263;-63
2022/11/30 04:00:17;;;;;;;135.93;36.37;;;-3.80;99.90;;;;;;4163811;28;20809;-64
2022/11/30 04:02:18;;;;;;;132.73;35.87;;;-3.80;99.90;;;;;;4145112;28;20275;-63
2022/11/30 04:04:19;;;;;;;140.93;37.13;;;-3.90;99.90;;;;;;4162618;28;20267;-63
2022/11/30 04:06:21;;;;;;;177.67;39.53;;;-3.90;99.90;;;;;;4162746;28;20266;-63
2022/11/30 04:08:22;;;;;;;172.93;35.77;;;-3.90;99.90;;;;;;4163967;28;20317;-64
2022/11/30 04:10:23;;;;;;;174.77;34.90;;;-4.00;99.90;;;;;;4162621;28;20271;-66
2022/11/30 04:12:24;;;;;;;142.20;34.13;;;-4.00;99.90;;;;;;4162727;28;20286;-63
2022/11/30 04:14:25;;;;;;;79.83;31.60;;;-4.00;99.90;;;;;;4162855;28;20380;-63
2022/11/30 04:16:27;;;;;;;75.43;33.00;;;-3.90;99.90;;;;;;4163281;28;20274;-63
2022/11/30 04:18:30;;;;;;;83.30;35.93;;;-3.90;99.90;;;;;;4162676;28;20274;-62
2022/11/30 04:20:31;;;;;;;82.50;35.63;;;-3.90;99.90;;;;;;4162408;28;20333;-65
2022/11/30 04:22:32;;;;;;;99.07;35.73;;;-3.80;99.90;;;;;;4163239;28;20336;-61
2022/11/30 04:24:33;;;;;;;176.83;42.33;;;-3.80;99.90;;;;;;4162175;28;20300;-63
2022/11/30 04:26:35;;;;;;;102.37;35.70;;;-3.80;99.90;;;;;;4163468;28;20340;-65
2022/11/30 04:28:36;;;;;;;96.03;35.53;;;-3.80;99.90;;;;;;4162378;28;20608;-67
2022/11/30 04:30:37;;;;;;;102.30;34.23;;;-3.80;99.90;;;;;;4163560;28;20348;-62
2022/11/30 04:32:38;;;;;;;81.40;34.40;;;-3.90;99.90;;;;;;4162298;28;20274;-63
2022/11/30 04:34:39;;;;;;;87.80;35.87;;;-3.80;99.90;;;;;;4163362;28;20584;-64
2022/11/30 04:36:40;;;;;;;87.67;34.73;;;-3.90;99.90;;;;;;4162152;28;20286;-64
2022/11/30 04:38:41;;;;;;;74.43;33.70;;;-3.90;99.90;;;;;;4163298;28;20324;-63
2022/11/30 04:40:43;;;;;;;85.07;34.17;;;-3.90;99.90;;;;;;4162012;28;20286;-62
2022/11/30 04:42:44;;;;;;;83.90;36.70;;;-3.80;99.90;;;;;;4162799;28;20286;-62
2022/11/30 04:44:45;;;;;;;66.33;31.17;;;-3.80;99.90;;;;;;4161518;28;20788;-62
2022/11/30 04:46:46;;;;;;;80.60;34.40;;;-3.80;99.90;;;;;;4162043;28;20340;-68
2022/11/30 04:48:47;;;;;;;136.80;36.63;;;-3.80;99.90;;;;;;4162600;28;20271;-63
2022/11/30 04:50:48;;;;;;;177.17;39.37;;;-3.80;99.90;;;;;;4162268;28;20341;-64
2022/11/30 04:52:49;;;;;;;111.00;33.77;;;-3.90;99.90;;;;;;4162742;28;20825;-66
2022/11/30 04:54:51;;;;;;;121.60;32.90;;;-3.90;99.90;;;;;;4162014;28;20301;-65
2022/11/30 04:56:53;;;;;;;126.33;31.53;;;-4.00;99.90;;;;;;4162710;28;20283;-69
2022/11/30 04:58:54;;;;;;;72.37;28.03;;;-4.00;99.90;;;;;;4160992;28;20271;-63
2022/11/30 05:00:55;;;;;;;62.80;28.37;;;-4.00;99.90;;;;;;4162208;28;20721;-66
2022/11/30 05:02:56;;;;;;;55.93;27.70;;;-4.00;99.90;;;;;;4161096;28;20658;-65
2022/11/30 05:04:57;;;;;;;61.67;29.30;;;-4.00;99.90;;;;;;4162210;28;20812;-63
2022/11/30 05:06:58;;;;;;;59.47;28.33;;;-3.90;99.90;;;;;;4176490;28;20685;-66
2022/11/30 05:09:00;;;;;;;66.17;30.90;;;-3.90;99.90;;;;;;4162425;28;20324;-63
2022/11/30 05:11:01;;;;;;;62.03;31.00;;;-3.90;99.90;;;;;;4161619;28;20275;-64
2022/11/30 05:13:02;;;;;;;54.10;28.10;;;-3.90;99.90;;;;;;4162499;28;20387;-63
2022/11/30 05:15:03;;;;;;;60.77;31.60;;;-3.90;99.90;;;;;;4161815;28;20781;-63
2022/11/30 05:17:04;;;;;;;65.87;32.67;;;-3.90;99.90;;;;;;4161753;28;20414;-63
2022/11/30 05:19:06;;;;;;;73.13;33.80;;;-3.90;99.90;;;;;;4162081;28;20658;-63
2022/11/30 05:21:07;;;;;;;70.53;27.40;;;-3.90;99.90;;;;;;4161948;28;20321;-68
2022/11/30 05:23:08;;;;;;;60.37;29.70;;;-3.90;99.90;;;;;;4162192;28;20305;-65
2022/11/30 05:25:09;;;;;;;191.27;36.60;;;-3.90;99.90;;;;;;4161516;28;20266;-64
2022/11/30 05:27:10;;;;;;;89.90;33.57;;;-3.80;99.90;;;;;;4162581;28;20796;-64
2022/11/30 05:29:11;;;;;;;93.80;33.70;;;-3.80;99.90;;;;;;4160045;28;20279;-65
2022/11/30 05:31:12;;;;;;;116.63;36.17;;;-3.70;99.90;;;;;;4162453;28;20298;-63
2022/11/30 05:33:14;;;;;;;175.83;37.10;;;-3.70;99.90;;;;;;4160808;28;20681;-64
2022/11/30 05:35:15;;;;;;;211.50;36.87;;;-3.70;99.90;;;;;;4162285;28;20267;-64
2022/11/30 05:37:16;;;;;;;138.23;37.30;;;-3.70;99.90;;;;;;4161175;28;20267;-63
2022/11/30 05:39:17;;;;;;;102.10;34.57;;;-3.70;99.90;;;;;;4162197;28;20666;-64
2022/11/30 05:41:18;;;;;;;88.67;35.90;;;-3.60;99.90;;;;;;4160627;28;20259;-63
2022/11/30 05:43:19;;;;;;;88.13;35.10;;;-3.60;99.90;;;;;;4162207;28;20293;-63
2022/11/30 05:45:21;;;;;;;116.37;37.93;;;-3.50;99.90;;;;;;4143515;28;20314;-62
2022/11/30 05:47:22;;;;;;;95.70;35.43;;;-3.50;99.90;;;;;;4161031;28;20631;-63
2022/11/30 05:49:23;;;;;;;93.57;36.23;;;-3.50;99.90;;;;;;4160997;28;20259;-62
2022/11/30 05:51:25;;;;;;;129.47;38.70;;;-3.40;99.90;;;;;;4160984;28;20340;-64
2022/11/30 05:53:26;;;;;;;183.90;39.03;;;-3.40;99.90;;;;;;4161082;28;20321;-64
2022/11/30 05:55:28;;;;;;;87.53;33.40;;;-3.40;99.90;;;;;;4160493;28;20663;-69
2022/11/30 05:57:29;;;;;;;96.70;33.03;;;-3.30;99.90;;;;;;4160793;28;20348;-64
2022/11/30 05:59:31;;;;;;;72.17;28.97;;;-3.30;99.90;;;;;;4160814;28;20686;-63
2022/11/30 06:01:32;;;;;;;105.17;37.63;;;-3.30;99.90;;;;;;4162268;28;20337;-64
2022/11/30 06:03:34;;;;;;;110.33;43.87;;;-3.30;99.90;;;;;;4160800;28;20274;-63
2022/11/30 06:05:36;;;;;;;118.37;44.30;;;-3.30;99.90;;;;;;4162057;28;20275;-65
2022/11/30 06:07:37;;;;;;;136.70;45.57;;;-3.30;99.90;;;;;;4160501;28;20333;-63
2022/11/30 06:09:39;;;;;;;139.93;43.23;;;-3.30;99.90;;;;;;4161703;28;20251;-62
2022/11/30 06:11:40;;;;;;;126.57;43.37;;;-3.40;99.90;;;;;;4159819;28;20290;-64
2022/11/30 06:13:41;;;;;;;134.37;44.80;;;-3.40;99.90;;;;;;4160817;28;20287;-64
2022/11/30 06:15:43;;;;;;;106.60;42.07;;;-3.50;99.90;;;;;;4160512;28;20274;-65
2022/11/30 06:17:44;;;;;;;106.73;42.53;;;-3.40;99.90;;;;;;4161205;28;20670;-63
2022/11/30 06:19:45;;;;;;;99.20;39.03;;;-3.40;99.90;;;;;;4161120;28;20270;-63
2022/11/30 06:21:46;;;;;;;91.93;37.63;;;-3.30;99.90;;;;;;4160459;28;20321;-63
2022/11/30 06:23:47;;;;;;;80.60;36.43;;;-3.20;99.90;;;;;;4161036;28;20755;-64
2022/11/30 06:25:48;;;;;;;81.97;35.47;;;-3.20;99.90;;;;;;4160570;28;20267;-65
2022/11/30 06:27:50;;;;;;;85.10;36.93;;;-3.10;99.90;;;;;;4161065;28;20336;-64
2022/11/30 06:29:51;;;;;;;98.07;38.53;;;-3.00;99.90;;;;;;4160765;28;20267;-63
2022/11/30 06:31:53;;;;;;;83.90;38.60;;;-3.00;99.90;;;;;;4161476;28;20368;-64
2022/11/30 06:33:58;;;;;;;94.17;41.03;;;-2.90;99.90;;;;;;4159645;28;20344;-64
2022/11/30 06:35:59;;;;;;;83.80;36.73;;;-2.90;99.90;;;;;;4161268;28;20340;-63
2022/11/30 06:38:00;;;;;;;81.67;37.43;;;-2.80;99.90;;;;;;4160521;28;20616;-64
2022/11/30 06:40:02;;;;;;;83.30;37.27;;;-2.80;99.90;;;;;;4143923;28;20308;-67
2022/11/30 06:42:03;;;;;;;78.00;32.70;;;-2.80;99.90;;;;;;4142797;28;20267;-67
2022/11/30 06:44:09;;;;;;;75.77;33.57;;;-2.70;99.90;;;;;;4176657;28;20266;-64
2022/11/30 06:46:10;;;;;;;72.73;32.70;;;-2.70;99.90;;;;;;4159089;28;20298;-63
2022/11/30 06:48:12;;;;;;;65.40;30.90;;;-2.60;99.90;;;;;;4143289;28;20354;-64
2022/11/30 06:50:13;;;;;;;65.73;31.70;;;-2.60;99.90;;;;;;4160219;28;20328;-65
2022/11/30 06:52:15;;;;;;;68.70;33.03;;;-2.50;99.90;;;;;;4160320;28;20364;-66
2022/11/30 06:54:16;;;;;;;77.37;34.93;;;-2.50;99.90;;;;;;4160418;28;20320;-63
2022/11/30 06:56:17;;;;;;;87.27;39.33;;;-2.40;99.90;;;;;;4160557;28;20255;-64
2022/11/30 06:58:18;;;;;;;116.47;50.53;;;-2.30;99.90;;;;;;4160843;28;20869;-64
2022/11/30 07:00:20;;;;;;;90.00;40.53;;;-2.30;99.90;;;;;;4159484;28;20789;-64
2022/11/30 07:02:22;;;;;;;99.17;42.40;;;-2.30;99.90;;;;;;4160918;28;20287;-68
2022/11/30 07:04:23;;;;;;;97.20;41.87;;;-2.30;99.90;;;;;;4160073;28;20255;-63
2022/11/30 07:06:24;;;;;;;110.20;45.43;;;-2.30;99.90;;;;;;4160786;28;20278;-64
2022/11/30 07:08:25;;;;;;;96.37;42.60;;;-2.20;99.90;;;;;;4159455;28;20343;-63
2022/11/30 07:10:27;;;;;;;100.40;43.80;;;-2.20;99.90;;;;;;4160619;28;20278;-64
2022/11/30 07:12:28;;;;;;;88.60;41.53;;;-2.20;99.90;;;;;;4159572;28;20643;-64
2022/11/30 07:14:29;;;;;;;100.07;42.30;;;-2.20;99.90;;;;;;4161049;28;20330;-67
2022/11/30 07:16:31;;;;;;;109.57;43.27;;;-2.10;99.90;;;;;;4159819;28;20270;-66
2022/11/30 07:18:32;;;;;;;100.20;43.07;;;-2.20;99.90;;;;;;4160465;28;20282;-63
2022/11/30 07:20:35;;;;;;;93.00;40.20;;;-2.10;99.90;;;;;;4159960;28;20356;-63
2022/11/30 07:22:36;;;;;;;91.27;40.37;;;-2.10;99.90;;;;;;4163447;28;20813;-63
2022/11/30 07:27:01;;;;;;;86.70;40.87;;;-2.00;99.90;;;;;;4164156;28;20320;-63
2022/11/30 07:29:04;;;;;;;88.07;42.13;;;-2.00;99.90;;;;;;4162798;28;20263;-63
2022/11/30 07:31:21;;;;;;;83.20;37.30;;;-2.00;99.90;;;;;;4163008;28;20324;-63
2022/11/30 07:33:22;;;;;;;81.43;36.13;;;-1.90;99.90;;;;;;4162828;28;20270;-67
2022/11/30 07:35:23;;;;;;;79.90;38.57;;;-1.80;99.90;;;;;;4163369;28;20352;-63
2022/11/30 07:37:25;;;;;;;73.40;33.60;;;-1.80;99.90;;;;;;4162629;28;20275;-63
2022/11/30 07:39:26;;;;;;;82.90;38.13;;;-1.80;99.90;;;;;;4162204;28;20604;-65
2022/11/30 07:41:28;;;;;;;82.40;36.67;;;-1.80;99.90;;;;;;4163605;28;20768;-64
2022/11/30 07:43:29;;;;;;;96.50;42.47;;;-1.70;99.90;;;;;;4162384;28;20560;-64
2022/11/30 07:45:30;;;;;;;92.27;39.53;;;-1.60;99.90;;;;;;4163156;28;20275;-64
2022/11/30 07:47:31;;;;;;;89.80;42.67;;;-1.50;99.90;;;;;;4162040;28;20274;-64
2022/11/30 07:49:32;;;;;;;93.17;40.37;;;-1.40;99.90;;;;;;4163316;28;20263;-63
2022/11/30 07:51:33;;;;;;;92.80;40.40;;;-1.30;99.90;;;;;;4162561;28;20295;-63
2022/11/30 07:53:34;;;;;;;88.50;42.27;;;-1.30;99.90;;;;;;4162338;28;20332;-62
2022/11/30 07:55:36;;;;;;;81.40;39.40;;;-1.20;99.90;;;;;;4162213;28;20270;-64
2022/11/30 07:57:37;;;;;;;81.43;38.20;;;-1.00;99.90;;;;;;4162956;28;20340;-65
2022/11/30 07:59:38;;;;;;;100.73;47.00;;;-0.90;99.90;;;;;;4162371;28;20813;-64
2022/11/30 08:01:39;;;;;;;118.23;53.80;;;-0.80;99.90;;;;;;4162891;28;20267;-64
2022/11/30 08:03:40;;;;;;;123.43;54.80;;;-0.70;99.90;;;;;;4162537;28;20301;-66
2022/11/30 08:05:42;;;;;;;85.17;42.77;;;-0.70;99.90;;;;;;4162873;28;20668;-64
2022/11/30 08:07:44;;;;;;;77.00;38.50;;;-0.70;99.90;;;;;;4162841;28;20255;-65
2022/11/30 08:09:45;;;;;;;88.63;37.20;;;-0.70;99.90;;;;;;4162951;28;20333;-65
2022/11/30 08:11:48;;;;;;;83.83;39.93;;;-0.70;99.90;;;;;;4161754;28;20361;-63
2022/11/30 08:13:50;;;;;;;81.10;38.27;;;-0.60;99.90;;;;;;4162238;28;20328;-64
2022/11/30 08:15:52;;;;;;;72.47;35.80;;;-0.60;99.90;;;;;;4145068;28;20318;-65
2022/11/30 08:17:54;;;;;;;76.23;38.20;;;-0.60;99.90;;;;;;4162152;28;20255;-64
2022/11/30 08:19:55;;;;;;;67.87;36.00;;;-0.70;99.90;;;;;;4162869;28;20340;-63
2022/11/30 08:21:56;;;;;;;64.40;33.13;;;-0.70;99.90;;;;;;4161149;28;20266;-64
2022/11/30 08:23:57;;;;;;;64.67;32.23;;;-0.60;99.90;;;;;;4161895;28;20279;-63
2022/11/30 08:26:07;;;;;;;68.30;33.83;;;-0.60;99.90;;;;;;4161457;28;20278;-63
2022/11/30 08:28:08;;;;;;;68.00;33.57;;;-0.60;99.90;;;;;;4163391;28;20541;-63
2022/11/30 08:30:09;;;;;;;71.17;35.83;;;-0.60;99.90;;;;;;4165816;28;20332;-63
2022/11/30 08:32:10;;;;;;;71.90;35.00;;;-0.60;99.90;;;;;;4168914;28;20290;-63
2022/11/30 08:34:12;;;;;;;77.63;36.83;;;-0.50;99.90;;;;;;4157799;28;20275;-64
2022/11/30 08:36:18;;;;;;;85.10;38.90;;;-0.50;99.90;;;;;;4161301;28;20267;-64
2022/11/30 08:38:20;;;;;;;91.93;41.20;;;-0.50;99.90;;;;;;4155848;28;20289;-63
2022/11/30 08:40:21;;;;;;;84.33;40.80;;;-0.40;99.90;;;;;;4157683;28;20270;-63
2022/11/30 08:42:22;;;;;;;85.50;43.67;;;-0.40;99.90;;;;;;4157890;28;20278;-64
2022/11/30 08:44:23;;;;;;;109.63;47.33;;;-0.20;99.90;;;;;;4162149;28;20726;-63
2022/11/30 08:46:24;;;;;;;102.10;46.23;;;-0.20;99.90;;;;;;4160270;28;20270;-63
2022/11/30 08:48:25;;;;;;;89.23;43.93;;;-0.10;99.90;;;;;;4140254;28;20310;-64
2022/11/30 08:50:26;;;;;;;109.43;51.07;;;0.00;99.90;;;;;;4160739;28;20266;-62
2022/11/30 08:52:28;;;;;;;150.03;65.50;;;0.10;99.90;;;;;;4160550;28;20290;-65
2022/11/30 08:54:30;;;;;;;109.83;48.20;;;0.10;99.90;;;;;;4160808;28;20368;-64
2022/11/30 08:56:31;;;;;;;94.67;45.90;;;0.10;99.90;;;;;;4160311;28;20792;-62
2022/11/30 08:58:35;;;;;;;108.53;51.17;;;0.20;99.90;;;;;;4156082;28;20321;-61
2022/11/30 09:00:36;;;;;;;95.13;45.17;;;0.20;99.90;;;;;;4161315;28;20321;-62
2022/11/30 09:02:37;;;;;;;87.13;45.73;;;0.20;99.90;;;;;;4162613;28;20332;-63
2022/11/30 09:04:38;;;;;;;94.33;45.30;;;0.10;99.90;;;;;;4161189;28;20278;-62
2022/11/30 09:06:40;;;;;;;90.87;44.70;;;0.10;99.90;;;;;;4161734;28;20368;-65
2022/11/30 09:08:43;;;;;;;71.70;38.23;;;0.10;99.90;;;;;;4156206;28;20262;-62
2022/11/30 09:10:44;;;;;;;71.50;35.83;;;0.10;99.90;;;;;;4161123;28;20332;-63
2022/11/30 09:12:46;;;;;;;75.60;36.13;;;0.10;99.90;;;;;;4161060;28;20287;-64
2022/11/30 09:14:47;;;;;;;70.63;34.43;;;0.00;99.90;;;;;;4161179;28;20816;-63
2022/11/30 09:16:48;;;;;;;57.97;31.73;;;0.00;99.90;;;;;;4160882;28;20251;-63
2022/11/30 09:18:50;;;;;;;64.40;31.50;;;0.00;99.90;;;;;;4161332;28;20313;-67
2022/11/30 09:20:51;;;;;;;56.80;28.80;;;0.00;99.90;;;;;;4162117;28;20267;-64
2022/11/30 09:22:53;;;;;;;61.97;31.60;;;0.00;99.90;;;;;;4160471;28;20290;-64
2022/11/30 09:24:54;;;;;;;55.43;29.07;;;-0.10;99.90;;;;;;4161917;28;20588;-63
2022/11/30 09:26:56;;;;;;;57.63;30.40;;;0.00;99.90;;;;;;4160487;28;20670;-66
2022/11/30 09:28:57;;;;;;;60.20;30.77;;;0.10;99.90;;;;;;4161727;28;20613;-67
2022/11/30 09:31:15;;;;;;;60.47;31.27;;;0.10;99.90;;;;;;4160717;28;20329;-63
2022/11/30 09:33:17;;;;;;;63.60;30.70;;;0.10;99.90;;;;;;4161426;28;20298;-66
2022/11/30 09:35:18;;;;;;;64.17;32.70;;;0.20;99.90;;;;;;4160269;28;20271;-64
2022/11/30 09:37:19;;;;;;;61.87;32.93;;;0.30;99.90;;;;;;4161749;28;20846;-65
2022/11/30 09:39:20;;;;;;;57.87;30.60;;;0.40;99.90;;;;;;4160340;28;20394;-64
2022/11/30 09:41:27;;;;;;;47.67;26.37;;;0.50;99.90;;;;;;4161901;28;20313;-66
2022/11/30 09:43:56;;;;;;;53.33;28.90;;;0.60;99.90;;;;;;4160155;28;20667;-65
2022/11/30 09:46:00;;;;;;;58.80;26.83;;;0.60;99.90;;;;;;4161237;28;21922;-62
2022/11/30 09:48:22;;;;;;;50.43;26.27;;;0.70;99.90;;;;;;4160359;28;20317;-64
2022/11/30 09:50:28;;;;;;;52.23;29.23;;;0.80;99.90;;;;;;4161444;28;20718;-66
2022/11/30 09:52:40;;;;;;;53.10;29.27;;;1.00;99.90;;;;;;4160237;28;20869;-63
2022/11/30 09:54:44;;;;;;;42.57;24.77;;;1.10;99.90;;;;;;4161422;28;20344;-62
2022/11/30 09:56:45;;;;;;;45.20;24.40;;;1.30;99.90;;;;;;4159692;28;20279;-65
2022/11/30 09:59:11;;;;;;;36.63;22.70;;;1.30;99.90;;;;;;4161159;28;20612;-62
2022/11/30 10:01:20;;;;;;;38.80;22.03;;;1.50;99.90;;;;;;4160742;28;20286;-66
2022/11/30 10:03:22;;;;;;;44.20;22.63;;;1.50;99.90;;;;;;4161143;28;20788;-62
2022/11/30 10:05:32;;;;;;;41.57;21.10;;;1.60;99.90;;;;;;4159603;28;20833;-64
2022/11/30 10:07:52;;;;;;;36.95;20.65;;;1.70;99.90;;;;;;4161160;28;20852;-61
2022/11/30 10:09:58;;;;;;;38.87;21.13;;;1.90;99.90;;;;;;4159019;28;20568;-61
2022/11/30 10:12:27;;;;;;;40.03;21.87;;;1.90;99.90;;;;;;4161130;28;20356;-63
2022/11/30 10:14:51;;;;;;;38.83;20.37;;;2.00;99.90;;;;;;4159768;28;20616;-67
2022/11/30 10:17:27;;;;;;;45.80;22.60;;;2.00;99.90;;;;;;4160641;28;20266;-67
2022/11/30 10:19:34;;;;;;;42.13;21.67;;;2.00;99.90;;;;;;4160491;28;20336;-66
2022/11/30 10:21:59;;;;;;;38.03;21.27;;;2.00;99.90;;;;;;4160168;28;20271;-60
2022/11/30 10:24:12;;;;;;;38.67;22.67;;;2.10;99.90;;;;;;4160216;28;20348;-63
2022/11/30 10:26:22;;;;;;;45.83;25.80;;;2.10;99.90;;;;;;4160013;28;20332;-63
2022/11/30 10:28:46;;;;;;;;;;;2.10;99.90;;;;;;4161046;28;20709;-63
2022/11/30 10:30:48;;;;;;;51.53;26.73;;;2.10;99.90;;;;;;4159794;28;19955;-61